sensor_id;sensor_type;location;lat;lon;timestamp;pressure;altitude;pressure_sealevel;temperature;humidity
72086;BME280;64750;52.134;5.424;2023-10-08T00:02:46;102423.38;;;18.15;86.67
72086;BME280;64750;52.134;5.424;2023-10-08T00:05:13;102434.03;;;18.15;86.71
72086;BME280;64750;52.134;5.424;2023-10-08T00:07:42;102443.72;;;18.16;86.75
72086;BME280;64750;52.134;5.424;2023-10-08T00:10:09;102454.47;;;18.14;86.80
72086;BME280;64750;52.134;5.424;2023-10-08T00:12:36;102465.22;;;18.13;87.39
72086;BME280;64750;52.134;5.424;2023-10-08T00:15:02;102467.88;;;18.13;87.09
72086;BME280;64750;52.134;5.424;2023-10-08T00:17:33;102482.97;;;18.12;87.78
72086;BME280;64750;52.134;5.424;2023-10-08T00:20:00;102472.34;;;18.12;87.52
72086;BME280;64750;52.134;5.424;2023-10-08T00:22:27;102468.84;;;18.12;87.62
72086;BME280;64750;52.134;5.424;2023-10-08T00:24:55;102459.13;;;18.11;88.00
72086;BME280;64750;52.134;5.424;2023-10-08T00:27:24;102463.63;;;18.10;87.96
72086;BME280;64750;52.134;5.424;2023-10-08T00:29:50;102462.56;;;18.13;88.00
72086;BME280;64750;52.134;5.424;2023-10-08T00:32:17;102463.50;;;18.12;87.86
72086;BME280;64750;52.134;5.424;2023-10-08T00:34:43;102456.38;;;18.12;88.12
72086;BME280;64750;52.134;5.424;2023-10-08T00:37:11;102463.41;;;18.13;87.62
72086;BME280;64750;52.134;5.424;2023-10-08T00:39:41;102447.44;;;18.13;87.82
72086;BME280;64750;52.134;5.424;2023-10-08T00:42:08;102441.28;;;18.13;88.13
72086;BME280;64750;52.134;5.424;2023-10-08T00:44:35;102442.13;;;18.13;88.09
72086;BME280;64750;52.134;5.424;2023-10-08T00:47:15;102442.44;;;18.09;88.48
72086;BME280;64750;52.134;5.424;2023-10-08T00:49:43;102434.47;;;18.09;88.61
72086;BME280;64750;52.134;5.424;2023-10-08T00:52:12;102436.06;;;18.11;88.31
72086;BME280;64750;52.134;5.424;2023-10-08T00:54:41;102439.56;;;18.12;88.00
72086;BME280;64750;52.134;5.424;2023-10-08T00:57:33;102427.09;;;18.12;88.27
72086;BME280;64750;52.134;5.424;2023-10-08T01:00:10;102419.13;;;18.12;88.22
72086;BME280;64750;52.134;5.424;2023-10-08T01:02:49;102429.69;;;18.14;87.80
72086;BME280;64750;52.134;5.424;2023-10-08T01:05:21;102425.31;;;18.13;87.97
72086;BME280;64750;52.134;5.424;2023-10-08T01:08:03;102411.13;;;18.12;88.00
72086;BME280;64750;52.134;5.424;2023-10-08T01:10:32;102433.41;;;18.11;88.15
72086;BME280;64750;52.134;5.424;2023-10-08T01:12:59;102421.16;;;18.09;88.29
72086;BME280;64750;52.134;5.424;2023-10-08T01:15:37;102415.84;;;18.09;88.06
72086;BME280;64750;52.134;5.424;2023-10-08T01:18:04;102409.53;;;18.10;88.36
72086;BME280;64750;52.134;5.424;2023-10-08T01:20:32;102417.63;;;18.08;88.48
72086;BME280;64750;52.134;5.424;2023-10-08T01:23:10;102407.28;;;18.03;88.53
72086;BME280;64750;52.134;5.424;2023-10-08T01:25:40;102419.75;;;18.03;88.70
72086;BME280;64750;52.134;5.424;2023-10-08T01:28:09;102427.84;;;18.01;89.05
72086;BME280;64750;52.134;5.424;2023-10-08T01:30:42;102419.09;;;17.99;89.02
72086;BME280;64750;52.134;5.424;2023-10-08T01:33:09;102425.34;;;17.98;88.73
72086;BME280;64750;52.134;5.424;2023-10-08T01:35:42;102430.91;;;17.95;89.20
72086;BME280;64750;52.134;5.424;2023-10-08T01:38:08;102439.06;;;17.92;89.48
72086;BME280;64750;52.134;5.424;2023-10-08T01:40:41;102449.88;;;17.89;89.38
72086;BME280;64750;52.134;5.424;2023-10-08T01:43:07;102444.56;;;17.89;89.42
72086;BME280;64750;52.134;5.424;2023-10-08T01:45:37;102448.09;;;17.90;89.52
72086;BME280;64750;52.134;5.424;2023-10-08T01:48:07;102446.28;;;17.90;89.41
72086;BME280;64750;52.134;5.424;2023-10-08T01:50:37;102454.38;;;17.88;89.24
72086;BME280;64750;52.134;5.424;2023-10-08T01:53:04;102453.50;;;17.88;89.48
72086;BME280;64750;52.134;5.424;2023-10-08T01:55:37;102458.81;;;17.88;89.21
72086;BME280;64750;52.134;5.424;2023-10-08T01:58:23;102473.28;;;17.84;89.58
72086;BME280;64750;52.134;5.424;2023-10-08T02:00:50;102479.47;;;17.84;89.53
72086;BME280;64750;52.134;5.424;2023-10-08T02:03:18;102480.31;;;17.85;89.27
72086;BME280;64750;52.134;5.424;2023-10-08T02:05:46;102493.72;;;17.83;89.53
72086;BME280;64750;52.134;5.424;2023-10-08T02:08:14;102495.59;;;17.81;90.04
72086;BME280;64750;52.134;5.424;2023-10-08T02:10:42;102488.56;;;17.80;89.86
72086;BME280;64750;52.134;5.424;2023-10-08T02:13:10;102494.88;;;17.79;90.24
72086;BME280;64750;52.134;5.424;2023-10-08T02:15:44;102487.72;;;17.80;90.22
72086;BME280;64750;52.134;5.424;2023-10-08T02:18:11;102499.22;;;17.80;90.14
72086;BME280;64750;52.134;5.424;2023-10-08T02:20:39;102492.94;;;17.81;90.20
72086;BME280;64750;52.134;5.424;2023-10-08T02:23:06;102492.00;;;17.82;90.19
72086;BME280;64750;52.134;5.424;2023-10-08T02:25:33;102499.03;;;17.83;89.94
72086;BME280;64750;52.134;5.424;2023-10-08T02:28:03;102474.16;;;17.84;90.14
72086;BME280;64750;52.134;5.424;2023-10-08T02:30:30;102474.97;;;17.85;89.63
72086;BME280;64750;52.134;5.424;2023-10-08T02:32:57;102481.47;;;17.81;90.10
72086;BME280;64750;52.134;5.424;2023-10-08T02:35:25;102492.94;;;17.81;90.65
72086;BME280;64750;52.134;5.424;2023-10-08T02:37:53;102505.41;;;17.81;90.61
72086;BME280;64750;52.134;5.424;2023-10-08T02:40:21;102496.47;;;17.82;90.64
72086;BME280;64750;52.134;5.424;2023-10-08T02:42:54;102491.22;;;17.80;90.44
72086;BME280;64750;52.134;5.424;2023-10-08T02:45:25;102466.25;;;17.83;90.29
72086;BME280;64750;52.134;5.424;2023-10-08T02:47:52;102462.63;;;17.84;90.29
72086;BME280;64750;52.134;5.424;2023-10-08T02:50:19;102461.69;;;17.85;90.55
72086;BME280;64750;52.134;5.424;2023-10-08T02:52:46;102486.78;;;17.81;90.63
72086;BME280;64750;52.134;5.424;2023-10-08T02:55:12;102525.34;;;17.74;91.10
72086;BME280;64750;52.134;5.424;2023-10-08T02:57:55;102482.69;;;17.75;90.99
72086;BME280;64750;52.134;5.424;2023-10-08T03:00:22;102511.88;;;17.77;90.89
72086;BME280;64750;52.134;5.424;2023-10-08T03:02:57;102507.50;;;17.76;91.09
72086;BME280;64750;52.134;5.424;2023-10-08T03:05:24;102482.63;;;17.77;91.10
72086;BME280;64750;52.134;5.424;2023-10-08T03:07:55;102493.03;;;17.80;90.44
72086;BME280;64750;52.134;5.424;2023-10-08T03:10:24;102515.38;;;17.77;90.73
72086;BME280;64750;52.134;5.424;2023-10-08T03:12:58;102487.94;;;17.77;90.63
72086;BME280;64750;52.134;5.424;2023-10-08T03:15:31;102506.44;;;17.78;90.67
72086;BME280;64750;52.134;5.424;2023-10-08T03:18:05;102500.25;;;17.78;90.90
72086;BME280;64750;52.134;5.424;2023-10-08T03:20:42;102490.50;;;17.78;90.96
72086;BME280;64750;52.134;5.424;2023-10-08T03:23:11;102501.97;;;17.79;90.58
72086;BME280;64750;52.134;5.424;2023-10-08T03:25:56;102499.53;;;17.76;90.80
72086;BME280;64750;52.134;5.424;2023-10-08T03:28:25;102475.59;;;17.76;90.60
72086;BME280;64750;52.134;5.424;2023-10-08T03:30:57;102471.97;;;17.77;90.70
72086;BME280;64750;52.134;5.424;2023-10-08T03:33:43;102491.53;;;17.76;90.65
72086;BME280;64750;52.134;5.424;2023-10-08T03:36:15;102495.44;;;17.70;91.07
72086;BME280;64750;52.134;5.424;2023-10-08T03:38:48;102517.19;;;17.62;91.45
72086;BME280;64750;52.134;5.424;2023-10-08T03:41:25;102544.16;;;17.56;91.64
72086;BME280;64750;52.134;5.424;2023-10-08T03:43:56;102540.66;;;17.55;91.66
72086;BME280;64750;52.134;5.424;2023-10-08T03:46:33;102537.81;;;17.59;91.73
72086;BME280;64750;52.134;5.424;2023-10-08T03:49:11;102529.75;;;17.60;91.41
72086;BME280;64750;52.134;5.424;2023-10-08T03:51:47;102529.75;;;17.60;91.69
72086;BME280;64750;52.134;5.424;2023-10-08T03:54:15;102541.13;;;17.62;91.70
72086;BME280;64750;52.134;5.424;2023-10-08T03:56:42;102545.41;;;17.65;91.42
72086;BME280;64750;52.134;5.424;2023-10-08T03:59:13;102553.38;;;17.65;91.40
72086;BME280;64750;52.134;5.424;2023-10-08T04:01:41;102557.38;;;17.58;90.69
72086;BME280;64750;52.134;5.424;2023-10-08T04:04:08;102553.28;;;17.52;90.06
72086;BME280;64750;52.134;5.424;2023-10-08T04:06:42;102575.81;;;17.46;89.24
72086;BME280;64750;52.134;5.424;2023-10-08T04:09:17;102589.56;;;17.38;88.79
72086;BME280;64750;52.134;5.424;2023-10-08T04:11:51;102599.91;;;17.29;88.78
72086;BME280;64750;52.134;5.424;2023-10-08T04:14:22;102600.19;;;17.24;88.71
72086;BME280;64750;52.134;5.424;2023-10-08T04:16:50;102600.72;;;17.15;88.58
72086;BME280;64750;52.134;5.424;2023-10-08T04:19:21;102613.78;;;17.03;87.76
72086;BME280;64750;52.134;5.424;2023-10-08T04:21:53;102620.81;;;17.04;87.73
72086;BME280;64750;52.134;5.424;2023-10-08T04:24:25;102607.72;;;17.01;87.04
72086;BME280;64750;52.134;5.424;2023-10-08T04:26:56;102599.00;;;16.99;86.40
72086;BME280;64750;52.134;5.424;2023-10-08T04:29:25;102609.63;;;16.99;86.28
72086;BME280;64750;52.134;5.424;2023-10-08T04:31:53;102606.97;;;16.99;85.90
72086;BME280;64750;52.134;5.424;2023-10-08T04:34:35;102593.19;;;16.93;85.82
72086;BME280;64750;52.134;5.424;2023-10-08T04:37:01;102587.03;;;16.92;85.79
72086;BME280;64750;52.134;5.424;2023-10-08T04:39:30;102586.16;;;16.92;85.78
72086;BME280;64750;52.134;5.424;2023-10-08T04:42:00;102580.06;;;16.89;85.53
72086;BME280;64750;52.134;5.424;2023-10-08T04:44:33;102582.41;;;16.80;85.55
72086;BME280;64750;52.134;5.424;2023-10-08T04:47:01;102563.72;;;16.81;85.78
72086;BME280;64750;52.134;5.424;2023-10-08T04:49:31;102559.09;;;16.85;85.28
72086;BME280;64750;52.134;5.424;2023-10-08T04:52:03;102566.13;;;16.86;84.97
72086;BME280;64750;52.134;5.424;2023-10-08T04:54:41;102601.69;;;16.83;85.28
72086;BME280;64750;52.134;5.424;2023-10-08T04:57:19;102607.25;;;16.79;85.46
72086;BME280;64750;52.134;5.424;2023-10-08T04:59:49;102615.50;;;16.74;85.75
72086;BME280;64750;52.134;5.424;2023-10-08T05:02:20;102607.53;;;16.74;85.59
72086;BME280;64750;52.134;5.424;2023-10-08T05:05:08;102616.16;;;16.78;85.58
72086;BME280;64750;52.134;5.424;2023-10-08T05:07:38;102616.50;;;16.71;85.47
72086;BME280;64750;52.134;5.424;2023-10-08T05:10:11;102617.47;;;16.70;85.99
72086;BME280;64750;52.134;5.424;2023-10-08T05:12:53;102613.69;;;16.75;86.06
72086;BME280;64750;52.134;5.424;2023-10-08T05:15:32;102607.44;;;16.76;86.12
72086;BME280;64750;52.134;5.424;2023-10-08T05:18:16;102612.66;;;16.77;86.09
72086;BME280;64750;52.134;5.424;2023-10-08T05:20:50;102611.81;;;16.77;85.76
72086;BME280;64750;52.134;5.424;2023-10-08T05:23:18;102627.75;;;16.77;85.76
72086;BME280;64750;52.134;5.424;2023-10-08T05:25:53;102637.59;;;16.75;85.73
72086;BME280;64750;52.134;5.424;2023-10-08T05:28:25;102647.53;;;16.71;86.06
72086;BME280;64750;52.134;5.424;2023-10-08T05:30:52;102649.09;;;16.59;85.93
72086;BME280;64750;52.134;5.424;2023-10-08T05:33:38;102653.91;;;16.52;85.69
72086;BME280;64750;52.134;5.424;2023-10-08T05:36:23;102649.44;;;16.53;85.37
72086;BME280;64750;52.134;5.424;2023-10-08T05:39:02;102647.56;;;16.39;85.09
72086;BME280;64750;52.134;5.424;2023-10-08T05:41:51;102668.78;;;16.23;84.44
72086;BME280;64750;52.134;5.424;2023-10-08T05:44:18;102669.72;;;16.22;84.06
72086;BME280;64750;52.134;5.424;2023-10-08T05:46:45;102666.63;;;16.14;83.72
72086;BME280;64750;52.134;5.424;2023-10-08T05:49:21;102680.91;;;16.11;83.20
72086;BME280;64750;52.134;5.424;2023-10-08T05:51:57;102707.50;;;16.10;82.86
72086;BME280;64750;52.134;5.424;2023-10-08T05:54:31;102719.06;;;16.08;82.85
72086;BME280;64750;52.134;5.424;2023-10-08T05:57:08;102713.09;;;16.05;82.99
72086;BME280;64750;52.134;5.424;2023-10-08T05:59:47;102687.81;;;15.98;82.47
72086;BME280;64750;52.134;5.424;2023-10-08T06:02:26;102676.22;;;15.83;82.33
72086;BME280;64750;52.134;5.424;2023-10-08T06:05:15;102667.50;;;15.81;82.54
72086;BME280;64750;52.134;5.424;2023-10-08T06:07:54;102660.41;;;15.81;82.08
72086;BME280;64750;52.134;5.424;2023-10-08T06:10:23;102676.38;;;15.80;82.11
72086;BME280;64750;52.134;5.424;2023-10-08T06:13:11;102684.47;;;15.77;81.98
72086;BME280;64750;52.134;5.424;2023-10-08T06:16:11;102698.59;;;15.77;81.68
72086;BME280;64750;52.134;5.424;2023-10-08T06:18:40;102710.06;;;15.78;81.43
72086;BME280;64750;52.134;5.424;2023-10-08T06:21:06;102729.63;;;15.75;81.42
72086;BME280;64750;52.134;5.424;2023-10-08T06:23:40;102718.94;;;15.77;81.67
72086;BME280;64750;52.134;5.424;2023-10-08T06:26:08;102719.13;;;15.73;81.28
72086;BME280;64750;52.134;5.424;2023-10-08T06:28:39;102728.78;;;15.74;81.32
72086;BME280;64750;52.134;5.424;2023-10-08T06:31:06;102730.81;;;15.69;81.15
72086;BME280;64750;52.134;5.424;2023-10-08T06:33:38;102738.25;;;15.63;81.07
72086;BME280;64750;52.134;5.424;2023-10-08T06:36:07;102737.34;;;15.62;81.37
72086;BME280;64750;52.134;5.424;2023-10-08T06:38:38;102731.97;;;15.64;81.37
72086;BME280;64750;52.134;5.424;2023-10-08T06:41:07;102734.56;;;15.65;81.29
72086;BME280;64750;52.134;5.424;2023-10-08T06:43:37;102729.31;;;15.64;81.64
72086;BME280;64750;52.134;5.424;2023-10-08T06:46:05;102746.03;;;15.66;81.06
72086;BME280;64750;52.134;5.424;2023-10-08T06:48:34;102742.22;;;15.54;81.22
72086;BME280;64750;52.134;5.424;2023-10-08T06:51:06;102726.44;;;15.51;81.92
72086;BME280;64750;52.134;5.424;2023-10-08T06:53:46;102735.00;;;15.56;81.60
72086;BME280;64750;52.134;5.424;2023-10-08T06:56:13;102736.13;;;15.52;81.31
72086;BME280;64750;52.134;5.424;2023-10-08T06:58:42;102742.34;;;15.51;81.39
72086;BME280;64750;52.134;5.424;2023-10-08T07:01:16;102743.97;;;15.53;81.33
72086;BME280;64750;52.134;5.424;2023-10-08T07:03:48;102738.47;;;15.58;81.04
72086;BME280;64750;52.134;5.424;2023-10-08T07:06:18;102744.38;;;15.63;81.10
72086;BME280;64750;52.134;5.424;2023-10-08T07:08:58;102754.38;;;15.58;80.79
72086;BME280;64750;52.134;5.424;2023-10-08T07:11:26;102753.91;;;15.50;80.71
72086;BME280;64750;52.134;5.424;2023-10-08T07:13:53;102755.69;;;15.49;81.09
72086;BME280;64750;52.134;5.424;2023-10-08T07:16:21;102754.59;;;15.53;80.96
72086;BME280;64750;52.134;5.424;2023-10-08T07:18:49;102752.31;;;15.46;81.08
72086;BME280;64750;52.134;5.424;2023-10-08T07:21:19;102767.28;;;15.47;81.51
72086;BME280;64750;52.134;5.424;2023-10-08T07:23:58;102766.06;;;15.54;81.35
72086;BME280;64750;52.134;5.424;2023-10-08T07:26:26;102765.13;;;15.55;81.19
72086;BME280;64750;52.134;5.424;2023-10-08T07:29:04;102759.50;;;15.61;80.96
72086;BME280;64750;52.134;5.424;2023-10-08T07:31:35;102774.34;;;15.65;80.91
72086;BME280;64750;52.134;5.424;2023-10-08T07:34:03;102776.09;;;15.65;80.91
72086;BME280;64750;52.134;5.424;2023-10-08T07:36:43;102773.53;;;15.63;81.30
72086;BME280;64750;52.134;5.424;2023-10-08T07:39:10;102762.00;;;15.64;81.29
72086;BME280;64750;52.134;5.424;2023-10-08T07:41:49;102764.47;;;15.67;81.36
72086;BME280;64750;52.134;5.424;2023-10-08T07:44:16;102760.28;;;15.63;81.33
72086;BME280;64750;52.134;5.424;2023-10-08T07:46:52;102767.31;;;15.64;81.52
72086;BME280;64750;52.134;5.424;2023-10-08T07:49:20;102777.03;;;15.64;81.44
72086;BME280;64750;52.134;5.424;2023-10-08T07:51:49;102771.06;;;15.60;81.51
72086;BME280;64750;52.134;5.424;2023-10-08T07:54:20;102779.78;;;15.62;81.47
72086;BME280;64750;52.134;5.424;2023-10-08T07:56:49;102792.25;;;15.60;81.30
72086;BME280;64750;52.134;5.424;2023-10-08T07:59:18;102793.19;;;15.59;81.37
72086;BME280;64750;52.134;5.424;2023-10-08T08:01:44;102790.38;;;15.62;81.21
72086;BME280;64750;52.134;5.424;2023-10-08T08:04:11;102791.88;;;15.68;81.32
72086;BME280;64750;52.134;5.424;2023-10-08T08:06:51;102791.69;;;15.71;81.41
72086;BME280;64750;52.134;5.424;2023-10-08T08:09:17;102799.34;;;15.77;81.18
72086;BME280;64750;52.134;5.424;2023-10-08T08:11:46;102807.13;;;15.80;81.13
72086;BME280;64750;52.134;5.424;2023-10-08T08:14:16;102802.66;;;15.82;81.14
72086;BME280;64750;52.134;5.424;2023-10-08T08:16:46;102809.88;;;15.79;80.92
72086;BME280;64750;52.134;5.424;2023-10-08T08:19:15;102817.69;;;15.82;80.35
72086;BME280;64750;52.134;5.424;2023-10-08T08:21:50;102820.13;;;15.86;79.97
72086;BME280;64750;52.134;5.424;2023-10-08T08:24:18;102819.97;;;15.89;79.40
72086;BME280;64750;52.134;5.424;2023-10-08T08:26:55;102817.75;;;15.80;79.07
72086;BME280;64750;52.134;5.424;2023-10-08T08:29:35;102830.94;;;15.82;79.10
72086;BME280;64750;52.134;5.424;2023-10-08T08:32:11;102833.47;;;15.85;79.28
72086;BME280;64750;52.134;5.424;2023-10-08T08:34:42;102846.63;;;15.86;78.38
72086;BME280;64750;52.134;5.424;2023-10-08T08:37:13;102847.91;;;15.78;78.33
72086;BME280;64750;52.134;5.424;2023-10-08T08:39:39;102851.50;;;15.77;78.70
72086;BME280;64750;52.134;5.424;2023-10-08T08:42:08;102860.16;;;15.80;78.25
72086;BME280;64750;52.134;5.424;2023-10-08T08:44:36;102856.66;;;15.80;78.18
72086;BME280;64750;52.134;5.424;2023-10-08T08:47:12;102858.25;;;15.84;78.12
72086;BME280;64750;52.134;5.424;2023-10-08T08:49:44;102863.56;;;15.84;78.35
72086;BME280;64750;52.134;5.424;2023-10-08T08:52:12;102852.09;;;15.83;78.09
72086;BME280;64750;52.134;5.424;2023-10-08T08:54:39;102846.63;;;15.86;78.06
72086;BME280;64750;52.134;5.424;2023-10-08T08:57:10;102839.38;;;15.90;77.99
72086;BME280;64750;52.134;5.424;2023-10-08T08:59:55;102840.09;;;15.94;77.80
72086;BME280;64750;52.134;5.424;2023-10-08T09:02:23;102830.94;;;15.99;77.41
72086;BME280;64750;52.134;5.424;2023-10-08T09:04:50;102836.13;;;16.02;77.57
72086;BME280;64750;52.134;5.424;2023-10-08T09:07:20;102836.97;;;16.03;77.42
72086;BME280;64750;52.134;5.424;2023-10-08T09:09:50;102839.53;;;16.04;77.23
72086;BME280;64750;52.134;5.424;2023-10-08T09:12:17;102832.50;;;16.03;77.04
72086;BME280;64750;52.134;5.424;2023-10-08T09:14:43;102823.63;;;16.04;77.13
72086;BME280;64750;52.134;5.424;2023-10-08T09:17:11;102826.13;;;16.07;76.87
72086;BME280;64750;52.134;5.424;2023-10-08T09:19:41;102831.44;;;16.07;77.12
72086;BME280;64750;52.134;5.424;2023-10-08T09:22:10;102826.03;;;16.09;76.79
72086;BME280;64750;52.134;5.424;2023-10-08T09:24:39;102821.56;;;16.10;76.97
72086;BME280;64750;52.134;5.424;2023-10-08T09:27:08;102830.31;;;16.12;76.68
72086;BME280;64750;52.134;5.424;2023-10-08T09:29:35;102825.03;;;16.12;76.87
72086;BME280;64750;52.134;5.424;2023-10-08T09:32:10;102834.69;;;16.13;76.60
72086;BME280;64750;52.134;5.424;2023-10-08T09:34:37;102839.03;;;16.14;76.69
72086;BME280;64750;52.134;5.424;2023-10-08T09:37:04;102842.50;;;16.16;77.08
72086;BME280;64750;52.134;5.424;2023-10-08T09:39:31;102847.78;;;16.16;76.97
72086;BME280;64750;52.134;5.424;2023-10-08T09:42:02;102855.84;;;16.14;76.46
72086;BME280;64750;52.134;5.424;2023-10-08T09:44:33;102853.94;;;16.16;76.70
72086;BME280;64750;52.134;5.424;2023-10-08T09:47:09;102848.41;;;16.21;77.00
72086;BME280;64750;52.134;5.424;2023-10-08T09:50:02;102850.22;;;16.20;76.88
72086;BME280;64750;52.134;5.424;2023-10-08T09:52:47;102850.34;;;16.17;77.25
72086;BME280;64750;52.134;5.424;2023-10-08T09:55:17;102854.72;;;16.18;77.12
72086;BME280;64750;52.134;5.424;2023-10-08T09:57:44;102842.31;;;16.19;76.89
72086;BME280;64750;52.134;5.424;2023-10-08T10:00:11;102850.22;;;16.20;77.04
72086;BME280;64750;52.134;5.424;2023-10-08T10:02:45;102846.69;;;16.20;77.42
72086;BME280;64750;52.134;5.424;2023-10-08T10:05:13;102845.59;;;16.24;77.22
72086;BME280;64750;52.134;5.424;2023-10-08T10:07:47;102834.03;;;16.25;77.29
72086;BME280;64750;52.134;5.424;2023-10-08T10:10:30;102830.53;;;16.24;77.28
72086;BME280;64750;52.134;5.424;2023-10-08T10:13:03;102823.34;;;16.27;77.65
72086;BME280;64750;52.134;5.424;2023-10-08T10:15:33;102836.56;;;16.28;77.54
72086;BME280;64750;52.134;5.424;2023-10-08T10:20:57;102840.66;;;16.34;77.69
72086;BME280;64750;52.134;5.424;2023-10-08T10:26:31;102853.69;;;16.38;77.65
72086;BME280;64750;52.134;5.424;2023-10-08T10:31:34;102854.47;;;16.40;77.63
72086;BME280;64750;52.134;5.424;2023-10-08T10:34:10;102846.50;;;16.40;77.69
72086;BME280;64750;52.134;5.424;2023-10-08T10:36:38;102843.84;;;16.40;77.74
72086;BME280;64750;52.134;5.424;2023-10-08T10:39:06;102844.81;;;16.39;77.67
72086;BME280;64750;52.134;5.424;2023-10-08T10:41:46;102851.97;;;16.37;77.90
72086;BME280;64750;52.134;5.424;2023-10-08T10:44:14;102855.41;;;16.39;78.12
72086;BME280;64750;52.134;5.424;2023-10-08T10:46:42;102850.03;;;16.41;78.36
72086;BME280;64750;52.134;5.424;2023-10-08T10:49:09;102854.41;;;16.42;77.82
72086;BME280;64750;52.134;5.424;2023-10-08T10:51:49;102861.41;;;16.43;78.32
72086;BME280;64750;52.134;5.424;2023-10-08T10:54:20;102846.25;;;16.45;78.16
72086;BME280;64750;52.134;5.424;2023-10-08T10:56:53;102849.63;;;16.49;78.13
72086;BME280;64750;52.134;5.424;2023-10-08T10:59:36;102838.06;;;16.50;78.05
72086;BME280;64750;52.134;5.424;2023-10-08T11:02:09;102827.44;;;16.50;78.03
72086;BME280;64750;52.134;5.424;2023-10-08T11:04:47;102822.06;;;16.51;77.98
72086;BME280;64750;52.134;5.424;2023-10-08T11:07:19;102823.69;;;16.54;78.14
72086;BME280;64750;52.134;5.424;2023-10-08T11:09:47;102821.78;;;16.56;77.94
72086;BME280;64750;52.134;5.424;2023-10-08T11:12:14;102821.78;;;16.56;78.02
72086;BME280;64750;52.134;5.424;2023-10-08T11:14:47;102829.75;;;16.56;78.13
72086;BME280;64750;52.134;5.424;2023-10-08T11:17:15;102833.19;;;16.58;78.31
72086;BME280;64750;52.134;5.424;2023-10-08T11:19:43;102834.03;;;16.59;78.13
72086;BME280;64750;52.134;5.424;2023-10-08T11:22:12;102829.59;;;16.59;78.01
72086;BME280;64750;52.134;5.424;2023-10-08T11:24:49;102830.34;;;16.61;77.64
72086;BME280;64750;52.134;5.424;2023-10-08T11:27:20;102828.72;;;16.59;77.49
72086;BME280;64750;52.134;5.424;2023-10-08T11:30:01;102829.69;;;16.58;77.47
72086;BME280;64750;52.134;5.424;2023-10-08T11:32:28;102822.66;;;16.56;77.44
72086;BME280;64750;52.134;5.424;2023-10-08T11:34:59;102827.97;;;16.56;77.37
72086;BME280;64750;52.134;5.424;2023-10-08T11:37:27;102827.09;;;16.56;77.54
72086;BME280;64750;52.134;5.424;2023-10-08T11:39:54;102819.13;;;16.56;77.39
72086;BME280;64750;52.134;5.424;2023-10-08T11:42:25;102822.75;;;16.55;77.61
72086;BME280;64750;52.134;5.424;2023-10-08T11:45:09;102822.75;;;16.55;77.58
72086;BME280;64750;52.134;5.424;2023-10-08T11:47:45;102812.13;;;16.55;77.44
72086;BME280;64750;52.134;5.424;2023-10-08T11:50:12;102811.94;;;16.58;77.58
72086;BME280;64750;52.134;5.424;2023-10-08T11:52:43;102814.44;;;16.61;77.75
72086;BME280;64750;52.134;5.424;2023-10-08T11:55:10;102804.78;;;16.60;77.35
72086;BME280;64750;52.134;5.424;2023-10-08T11:57:48;102805.63;;;16.61;77.57
72086;BME280;64750;52.134;5.424;2023-10-08T12:00:16;102806.47;;;16.61;77.54
72086;BME280;64750;52.134;5.424;2023-10-08T12:02:58;102800.22;;;16.62;77.58
72086;BME280;64750;52.134;5.424;2023-10-08T12:05:24;102790.53;;;16.61;77.44
72086;BME280;64750;52.134;5.424;2023-10-08T12:07:52;102787.72;;;16.64;77.46
72086;BME280;64750;52.134;5.424;2023-10-08T12:10:24;102780.63;;;16.65;77.25
72086;BME280;64750;52.134;5.424;2023-10-08T12:12:51;102774.28;;;16.67;77.48
72086;BME280;64750;52.134;5.424;2023-10-08T12:15:21;102767.94;;;16.70;77.82
72086;BME280;64750;52.134;5.424;2023-10-08T12:17:49;102761.78;;;16.69;77.28
72086;BME280;64750;52.134;5.424;2023-10-08T12:20:35;102751.16;;;16.69;77.28
72086;BME280;64750;52.134;5.424;2023-10-08T12:23:06;102747.72;;;16.67;77.28
72086;BME280;64750;52.134;5.424;2023-10-08T12:25:37;102752.28;;;16.65;77.15
72086;BME280;64750;52.134;5.424;2023-10-08T12:28:05;102750.56;;;16.64;76.96
72086;BME280;64750;52.134;5.424;2023-10-08T12:30:31;102737.19;;;16.66;77.30
72086;BME280;64750;52.134;5.424;2023-10-08T12:32:59;102742.50;;;16.66;77.33
72086;BME280;64750;52.134;5.424;2023-10-08T12:35:27;102738.81;;;16.68;77.10
72086;BME280;64750;52.134;5.424;2023-10-08T12:37:55;102736.06;;;16.70;77.17
72086;BME280;64750;52.134;5.424;2023-10-08T12:40:23;102745.66;;;16.72;77.43
72086;BME280;64750;52.134;5.424;2023-10-08T12:42:52;102735.91;;;16.73;77.52
72086;BME280;64750;52.134;5.424;2023-10-08T12:45:19;102724.44;;;16.72;77.56
72086;BME280;64750;52.134;5.424;2023-10-08T12:47:52;102727.88;;;16.75;77.49
72086;BME280;64750;52.134;5.424;2023-10-08T12:50:19;102734.81;;;16.77;77.52
72086;BME280;64750;52.134;5.424;2023-10-08T12:53:06;102717.06;;;16.78;77.39
72086;BME280;64750;52.134;5.424;2023-10-08T12:55:33;102713.66;;;16.76;77.57
72086;BME280;64750;52.134;5.424;2023-10-08T12:58:06;102715.38;;;16.77;77.24
72086;BME280;64750;52.134;5.424;2023-10-08T13:00:37;102715.38;;;16.77;77.36
72086;BME280;64750;52.134;5.424;2023-10-08T13:03:16;102716.22;;;16.77;77.22
72086;BME280;64750;52.134;5.424;2023-10-08T13:05:50;102706.63;;;16.75;76.71
72086;BME280;64750;52.134;5.424;2023-10-08T13:08:20;102712.78;;;16.75;76.68
72086;BME280;64750;52.134;5.424;2023-10-08T13:10:47;102713.66;;;16.76;76.43
72086;BME280;64750;52.134;5.424;2023-10-08T13:13:14;102703.03;;;16.76;76.64
72086;BME280;64750;52.134;5.424;2023-10-08T13:15:40;102717.16;;;16.76;76.33
72086;BME280;64750;52.134;5.424;2023-10-08T13:18:08;102711.75;;;16.78;76.09
72086;BME280;64750;52.134;5.424;2023-10-08T13:20:35;102716.03;;;16.80;76.16
72086;BME280;64750;52.134;5.424;2023-10-08T13:23:02;102708.94;;;16.81;76.62